sensor_id;sensor_type;location;lat;lon;timestamp;temperature;humidity
26270;DHT22;15937;50.612;6.656;2023-02-25T00:03:53;3.80;99.90
26270;DHT22;15937;50.612;6.656;2023-02-25T00:07:55;3.80;99.90
26270;DHT22;15937;50.612;6.656;2023-02-25T00:11:56;3.80;99.90
26270;DHT22;15937;50.612;6.656;2023-02-25T00:15:58;3.80;99.90
26270;DHT22;15937;50.612;6.656;2023-02-25T00:20:02;3.80;99.90
26270;DHT22;15937;50.612;6.656;2023-02-25T00:24:05;3.70;99.90
26270;DHT22;15937;50.612;6.656;2023-02-25T00:28:17;3.70;99.90
26270;DHT22;15937;50.612;6.656;2023-02-25T00:32:18;3.70;99.90
26270;DHT22;15937;50.612;6.656;2023-02-25T00:36:21;3.70;99.90
26270;DHT22;15937;50.612;6.656;2023-02-25T00:40:25;3.60;99.90
26270;DHT22;15937;50.612;6.656;2023-02-25T00:44:26;3.60;99.90
26270;DHT22;15937;50.612;6.656;2023-02-25T00:48:28;3.60;99.90
26270;DHT22;15937;50.612;6.656;2023-02-25T00:52:31;3.60;99.90
26270;DHT22;15937;50.612;6.656;2023-02-25T00:56:32;3.50;99.90
26270;DHT22;15937;50.612;6.656;2023-02-25T01:00:34;3.60;99.90
26270;DHT22;15937;50.612;6.656;2023-02-25T01:04:51;3.60;99.90
26270;DHT22;15937;50.612;6.656;2023-02-25T01:08:53;3.60;99.90
26270;DHT22;15937;50.612;6.656;2023-02-25T01:12:55;3.50;99.90
26270;DHT22;15937;50.612;6.656;2023-02-25T01:16:56;3.50;99.90
26270;DHT22;15937;50.612;6.656;2023-02-25T01:21:01;3.50;99.90
26270;DHT22;15937;50.612;6.656;2023-02-25T01:25:03;3.50;99.90
26270;DHT22;15937;50.612;6.656;2023-02-25T01:29:05;3.40;99.90
26270;DHT22;15937;50.612;6.656;2023-02-25T01:33:07;3.40;99.90
26270;DHT22;15937;50.612;6.656;2023-02-25T01:37:09;3.40;99.90
26270;DHT22;15937;50.612;6.656;2023-02-25T01:41:10;3.30;99.90
26270;DHT22;15937;50.612;6.656;2023-02-25T01:53:23;3.10;99.90
26270;DHT22;15937;50.612;6.656;2023-02-25T01:57:25;3.20;99.90
26270;DHT22;15937;50.612;6.656;2023-02-25T02:01:28;3.10;99.90
26270;DHT22;15937;50.612;6.656;2023-02-25T02:05:41;3.20;99.90
26270;DHT22;15937;50.612;6.656;2023-02-25T02:09:45;3.20;99.90
26270;DHT22;15937;50.612;6.656;2023-02-25T02:13:56;3.20;99.90
26270;DHT22;15937;50.612;6.656;2023-02-25T02:17:59;3.10;99.90
26270;DHT22;15937;50.612;6.656;2023-02-25T02:26:19;3.10;99.90
26270;DHT22;15937;50.612;6.656;2023-02-25T02:34:44;3.00;99.90
26270;DHT22;15937;50.612;6.656;2023-02-25T02:39:03;3.00;99.90
26270;DHT22;15937;50.612;6.656;2023-02-25T02:43:21;3.10;99.90
26270;DHT22;15937;50.612;6.656;2023-02-25T02:47:24;3.10;99.90
26270;DHT22;15937;50.612;6.656;2023-02-25T02:51:35;3.10;99.90
26270;DHT22;15937;50.612;6.656;2023-02-25T02:55:39;3.10;99.90
26270;DHT22;15937;50.612;6.656;2023-02-25T02:59:46;3.10;99.90
26270;DHT22;15937;50.612;6.656;2023-02-25T03:03:50;3.10;99.90
26270;DHT22;15937;50.612;6.656;2023-02-25T03:08:00;3.20;99.90
26270;DHT22;15937;50.612;6.656;2023-02-25T03:12:06;3.30;99.90
26270;DHT22;15937;50.612;6.656;2023-02-25T03:16:08;3.20;99.90
26270;DHT22;15937;50.612;6.656;2023-02-25T03:20:14;3.20;99.90
26270;DHT22;15937;50.612;6.656;2023-02-25T03:24:19;3.20;99.90
26270;DHT22;15937;50.612;6.656;2023-02-25T03:28:27;3.20;99.90
26270;DHT22;15937;50.612;6.656;2023-02-25T03:32:31;3.20;99.90
26270;DHT22;15937;50.612;6.656;2023-02-25T03:36:46;3.20;99.90
26270;DHT22;15937;50.612;6.656;2023-02-25T03:40:49;3.20;99.90
26270;DHT22;15937;50.612;6.656;2023-02-25T03:44:53;3.20;99.90
26270;DHT22;15937;50.612;6.656;2023-02-25T03:48:55;3.20;99.90
26270;DHT22;15937;50.612;6.656;2023-02-25T03:52:57;3.10;99.90
26270;DHT22;15937;50.612;6.656;2023-02-25T03:56:59;3.10;99.90
26270;DHT22;15937;50.612;6.656;2023-02-25T04:01:10;3.20;99.90
26270;DHT22;15937;50.612;6.656;2023-02-25T04:05:17;3.10;99.90
26270;DHT22;15937;50.612;6.656;2023-02-25T04:09:18;3.10;99.90
26270;DHT22;15937;50.612;6.656;2023-02-25T04:13:20;3.10;99.90
26270;DHT22;15937;50.612;6.656;2023-02-25T04:17:22;3.10;99.90
26270;DHT22;15937;50.612;6.656;2023-02-25T04:21:28;3.10;99.90
26270;DHT22;15937;50.612;6.656;2023-02-25T04:26:16;3.10;99.90
26270;DHT22;15937;50.612;6.656;2023-02-25T04:30:15;3.10;99.90
26270;DHT22;15937;50.612;6.656;2023-02-25T04:34:17;3.20;99.90
26270;DHT22;15937;50.612;6.656;2023-02-25T04:38:19;3.10;99.90
26270;DHT22;15937;50.612;6.656;2023-02-25T04:42:21;3.10;99.90
26270;DHT22;15937;50.612;6.656;2023-02-25T04:46:23;3.10;99.90
26270;DHT22;15937;50.612;6.656;2023-02-25T04:50:26;3.10;99.90
26270;DHT22;15937;50.612;6.656;2023-02-25T04:54:31;3.00;99.90
26270;DHT22;15937;50.612;6.656;2023-02-25T04:58:33;3.10;99.90
26270;DHT22;15937;50.612;6.656;2023-02-25T05:02:35;3.10;99.90
26270;DHT22;15937;50.612;6.656;2023-02-25T05:06:36;3.00;99.90
26270;DHT22;15937;50.612;6.656;2023-02-25T05:10:39;2.90;99.90
26270;DHT22;15937;50.612;6.656;2023-02-25T05:14:41;2.90;99.90
26270;DHT22;15937;50.612;6.656;2023-02-25T05:18:43;3.00;99.90
26270;DHT22;15937;50.612;6.656;2023-02-25T05:22:45;3.00;99.90
26270;DHT22;15937;50.612;6.656;2023-02-25T05:26:47;2.90;99.90
26270;DHT22;15937;50.612;6.656;2023-02-25T05:30:48;3.00;99.90
26270;DHT22;15937;50.612;6.656;2023-02-25T05:34:52;3.00;99.90
26270;DHT22;15937;50.612;6.656;2023-02-25T05:38:54;2.90;99.90
26270;DHT22;15937;50.612;6.656;2023-02-25T05:42:56;2.90;99.90
26270;DHT22;15937;50.612;6.656;2023-02-25T05:46:58;2.90;99.90
26270;DHT22;15937;50.612;6.656;2023-02-25T05:51:04;2.90;99.90
26270;DHT22;15937;50.612;6.656;2023-02-25T05:55:07;2.90;99.90
26270;DHT22;15937;50.612;6.656;2023-02-25T05:59:11;3.00;99.90
26270;DHT22;15937;50.612;6.656;2023-02-25T06:03:13;3.00;99.90
26270;DHT22;15937;50.612;6.656;2023-02-25T06:07:14;3.00;99.90
26270;DHT22;15937;50.612;6.656;2023-02-25T06:11:17;3.00;99.90
26270;DHT22;15937;50.612;6.656;2023-02-25T06:15:20;3.00;99.90
26270;DHT22;15937;50.612;6.656;2023-02-25T06:19:22;3.00;99.90
26270;DHT22;15937;50.612;6.656;2023-02-25T06:23:24;3.00;99.90
26270;DHT22;15937;50.612;6.656;2023-02-25T06:27:25;3.00;99.90
26270;DHT22;15937;50.612;6.656;2023-02-25T06:31:28;3.00;99.90
26270;DHT22;15937;50.612;6.656;2023-02-25T06:35:30;2.90;99.90
26270;DHT22;15937;50.612;6.656;2023-02-25T06:39:32;3.00;99.90
26270;DHT22;15937;50.612;6.656;2023-02-25T06:43:34;3.00;99.90
26270;DHT22;15937;50.612;6.656;2023-02-25T06:47:35;3.00;99.90
26270;DHT22;15937;50.612;6.656;2023-02-25T06:51:37;2.90;99.90
26270;DHT22;15937;50.612;6.656;2023-02-25T06:55:39;2.90;99.90
26270;DHT22;15937;50.612;6.656;2023-02-25T06:59:41;3.00;99.90
26270;DHT22;15937;50.612;6.656;2023-02-25T07:03:43;3.00;99.90
26270;DHT22;15937;50.612;6.656;2023-02-25T07:07:44;2.90;99.90
26270;DHT22;15937;50.612;6.656;2023-02-25T07:11:46;3.00;99.90
26270;DHT22;15937;50.612;6.656;2023-02-25T07:15:47;3.00;99.90
26270;DHT22;15937;50.612;6.656;2023-02-25T07:19:49;3.00;99.90
26270;DHT22;15937;50.612;6.656;2023-02-25T07:23:51;3.00;99.90
26270;DHT22;15937;50.612;6.656;2023-02-25T07:27:52;3.10;99.90
26270;DHT22;15937;50.612;6.656;2023-02-25T07:31:54;3.10;99.90
26270;DHT22;15937;50.612;6.656;2023-02-25T07:35:56;3.20;99.90
26270;DHT22;15937;50.612;6.656;2023-02-25T07:39:58;3.10;99.90
26270;DHT22;15937;50.612;6.656;2023-02-25T07:44:00;3.20;99.90
26270;DHT22;15937;50.612;6.656;2023-02-25T07:48:02;3.10;99.90
26270;DHT22;15937;50.612;6.656;2023-02-25T07:52:04;3.20;99.90
26270;DHT22;15937;50.612;6.656;2023-02-25T07:56:06;3.20;99.90
26270;DHT22;15937;50.612;6.656;2023-02-25T08:00:08;3.10;99.90
26270;DHT22;15937;50.612;6.656;2023-02-25T08:04:10;3.20;99.90
26270;DHT22;15937;50.612;6.656;2023-02-25T08:08:13;3.20;99.90
26270;DHT22;15937;50.612;6.656;2023-02-25T08:12:16;3.20;99.90
26270;DHT22;15937;50.612;6.656;2023-02-25T08:16:19;3.20;99.90
26270;DHT22;15937;50.612;6.656;2023-02-25T08:20:21;3.30;99.90
26270;DHT22;15937;50.612;6.656;2023-02-25T08:24:22;3.40;99.90
26270;DHT22;15937;50.612;6.656;2023-02-25T08:28:25;3.50;99.90
26270;DHT22;15937;50.612;6.656;2023-02-25T08:32:27;3.50;99.90
26270;DHT22;15937;50.612;6.656;2023-02-25T08:36:29;3.60;99.90
26270;DHT22;15937;50.612;6.656;2023-02-25T08:40:31;3.60;99.90
26270;DHT22;15937;50.612;6.656;2023-02-25T08:44:33;3.70;99.90
26270;DHT22;15937;50.612;6.656;2023-02-25T08:48:35;3.70;99.90
26270;DHT22;15937;50.612;6.656;2023-02-25T08:52:37;3.70;99.90
26270;DHT22;15937;50.612;6.656;2023-02-25T08:56:42;3.80;99.90
26270;DHT22;15937;50.612;6.656;2023-02-25T09:00:45;3.80;99.90
26270;DHT22;15937;50.612;6.656;2023-02-25T09:04:52;3.70;99.90
26270;DHT22;15937;50.612;6.656;2023-02-25T09:08:54;3.70;99.90
26270;DHT22;15937;50.612;6.656;2023-02-25T09:12:56;3.70;99.90
26270;DHT22;15937;50.612;6.656;2023-02-25T09:16:58;3.70;99.90
26270;DHT22;15937;50.612;6.656;2023-02-25T09:20:59;3.90;99.90
26270;DHT22;15937;50.612;6.656;2023-02-25T09:25:01;3.90;99.90
26270;DHT22;15937;50.612;6.656;2023-02-25T09:29:05;3.90;99.90
26270;DHT22;15937;50.612;6.656;2023-02-25T09:33:07;4.00;99.90
26270;DHT22;15937;50.612;6.656;2023-02-25T09:37:09;4.00;99.90
26270;DHT22;15937;50.612;6.656;2023-02-25T09:41:16;4.00;99.90
26270;DHT22;15937;50.612;6.656;2023-02-25T09:45:19;4.10;99.90
26270;DHT22;15937;50.612;6.656;2023-02-25T09:49:33;4.10;99.90
26270;DHT22;15937;50.612;6.656;2023-02-25T09:53:40;4.10;99.90
26270;DHT22;15937;50.612;6.656;2023-02-25T09:57:44;4.20;99.90
26270;DHT22;15937;50.612;6.656;2023-02-25T10:01:49;4.20;99.90
26270;DHT22;15937;50.612;6.656;2023-02-25T10:06:06;4.40;99.90
26270;DHT22;15937;50.612;6.656;2023-02-25T10:14:54;4.30;99.90
26270;DHT22;15937;50.612;6.656;2023-02-25T10:23:08;4.30;99.90
26270;DHT22;15937;50.612;6.656;2023-02-25T10:27:18;4.20;99.90
26270;DHT22;15937;50.612;6.656;2023-02-25T10:31:21;4.20;99.90
26270;DHT22;15937;50.612;6.656;2023-02-25T10:35:28;4.20;99.90
26270;DHT22;15937;50.612;6.656;2023-02-25T10:39:29;4.10;99.90
26270;DHT22;15937;50.612;6.656;2023-02-25T10:43:32;4.00;99.90
26270;DHT22;15937;50.612;6.656;2023-02-25T10:47:35;4.10;99.90
26270;DHT22;15937;50.612;6.656;2023-02-25T10:51:38;4.10;99.90
26270;DHT22;15937;50.612;6.656;2023-02-25T10:59:44;4.10;99.90
26270;DHT22;15937;50.612;6.656;2023-02-25T11:03:53;4.20;99.90
26270;DHT22;15937;50.612;6.656;2023-02-25T11:07:56;4.30;99.90
26270;DHT22;15937;50.612;6.656;2023-02-25T11:16:10;4.20;99.90
26270;DHT22;15937;50.612;6.656;2023-02-25T11:20:23;4.30;99.90
26270;DHT22;15937;50.612;6.656;2023-02-25T11:24:32;4.70;99.90
26270;DHT22;15937;50.612;6.656;2023-02-25T11:28:41;4.70;99.90
26270;DHT22;15937;50.612;6.656;2023-02-25T11:32:44;4.40;99.90
26270;DHT22;15937;50.612;6.656;2023-02-25T11:36:48;4.70;99.90
26270;DHT22;15937;50.612;6.656;2023-02-25T11:40:51;4.80;99.90
26270;DHT22;15937;50.612;6.656;2023-02-25T11:44:59;5.30;99.90
26270;DHT22;15937;50.612;6.656;2023-02-25T11:57:22;2.50;99.90
26270;DHT22;15937;50.612;6.656;2023-02-25T12:05:42;1.90;99.90
26270;DHT22;15937;50.612;6.656;2023-02-25T12:31:25;2.80;99.90
26270;DHT22;15937;50.612;6.656;2023-02-25T12:48:25;3.30;99.90
26270;DHT22;15937;50.612;6.656;2023-02-25T13:09:25;3.60;99.90
26270;DHT22;15937;50.612;6.656;2023-02-25T13:47:45;4.40;99.90
26270;DHT22;15937;50.612;6.656;2023-02-25T13:56:57;4.60;99.90
26270;DHT22;15937;50.612;6.656;2023-02-25T14:00:42;4.50;99.90
26270;DHT22;15937;50.612;6.656;2023-02-25T14:04:51;4.50;99.90
26270;DHT22;15937;50.612;6.656;2023-02-25T14:47:00;4.10;99.90
26270;DHT22;15937;50.612;6.656;2023-02-25T15:16:19;4.40;99.90
26270;DHT22;15937;50.612;6.656;2023-02-25T15:24:40;4.60;99.90
26270;DHT22;15937;50.612;6.656;2023-02-25T15:28:43;4.50;99.90
26270;DHT22;15937;50.612;6.656;2023-02-25T15:37:16;4.50;99.90
26270;DHT22;15937;50.612;6.656;2023-02-25T15:45:33;4.80;99.60
26270;DHT22;15937;50.612;6.656;2023-02-25T15:49:37;4.80;99.50
26270;DHT22;15937;50.612;6.656;2023-02-25T15:53:44;4.30;99.20
26270;DHT22;15937;50.612;6.656;2023-02-25T15:57:48;4.20;99.60
26270;DHT22;15937;50.612;6.656;2023-02-25T16:01:49;4.20;98.70
26270;DHT22;15937;50.612;6.656;2023-02-25T16:05:52;4.20;99.20
26270;DHT22;15937;50.612;6.656;2023-02-25T16:09:56;4.20;99.10
26270;DHT22;15937;50.612;6.656;2023-02-25T16:13:58;4.20;99.20
26270;DHT22;15937;50.612;6.656;2023-02-25T16:18:08;4.20;99.50
26270;DHT22;15937;50.612;6.656;2023-02-25T16:22:22;4.00;98.20
26270;DHT22;15937;50.612;6.656;2023-02-25T16:26:28;3.90;97.90
26270;DHT22;15937;50.612;6.656;2023-02-25T16:30:35;3.70;97.40
26270;DHT22;15937;50.612;6.656;2023-02-25T16:34:54;3.60;95.20
26270;DHT22;15937;50.612;6.656;2023-02-25T16:39:02;3.50;95.60
26270;DHT22;15937;50.612;6.656;2023-02-25T16:43:04;3.40;96.50
26270;DHT22;15937;50.612;6.656;2023-02-25T16:47:29;3.30;96.30
26270;DHT22;15937;50.612;6.656;2023-02-25T16:51:33;3.30;97.00
26270;DHT22;15937;50.612;6.656;2023-02-25T16:55:38;3.20;97.40
26270;DHT22;15937;50.612;6.656;2023-02-25T16:59:40;3.10;97.60
26270;DHT22;15937;50.612;6.656;2023-02-25T17:03:43;3.00;97.30
26270;DHT22;15937;50.612;6.656;2023-02-25T17:07:46;2.90;97.00
26270;DHT22;15937;50.612;6.656;2023-02-25T17:11:53;2.80;97.10
26270;DHT22;15937;50.612;6.656;2023-02-25T17:15:56;2.70;97.60
26270;DHT22;15937;50.612;6.656;2023-02-25T17:20:02;2.70;97.10
26270;DHT22;15937;50.612;6.656;2023-02-25T17:24:07;2.60;96.50
26270;DHT22;15937;50.612;6.656;2023-02-25T17:28:16;2.60;97.00
26270;DHT22;15937;50.612;6.656;2023-02-25T17:32:22;2.40;97.20
26270;DHT22;15937;50.612;6.656;2023-02-25T17:36:35;2.30;97.40
26270;DHT22;15937;50.612;6.656;2023-02-25T17:40:39;2.20;98.40
26270;DHT22;15937;50.612;6.656;2023-02-25T17:44:42;2.10;99.40
26270;DHT22;15937;50.612;6.656;2023-02-25T17:48:49;2.00;99.90
26270;DHT22;15937;50.612;6.656;2023-02-25T17:52:51;2.00;99.90
26270;DHT22;15937;50.612;6.656;2023-02-25T17:56:54;1.90;99.90
26270;DHT22;15937;50.612;6.656;2023-02-25T18:00:57;1.80;99.90
26270;DHT22;15937;50.612;6.656;2023-02-25T18:13:35;1.50;99.90
26270;DHT22;15937;50.612;6.656;2023-02-25T18:17:37;1.40;99.90
26270;DHT22;15937;50.612;6.656;2023-02-25T18:21:40;1.40;99.90
26270;DHT22;15937;50.612;6.656;2023-02-25T18:25:43;1.30;99.90
26270;DHT22;15937;50.612;6.656;2023-02-25T18:29:45;1.20;99.90
26270;DHT22;15937;50.612;6.656;2023-02-25T18:33:47;1.20;99.90
26270;DHT22;15937;50.612;6.656;2023-02-25T18:37:49;1.20;99.90
26270;DHT22;15937;50.612;6.656;2023-02-25T18:41:51;1.10;99.90
26270;DHT22;15937;50.612;6.656;2023-02-25T18:45:53;1.10;99.90
26270;DHT22;15937;50.612;6.656;2023-02-25T18:49:55;0.90;99.90
26270;DHT22;15937;50.612;6.656;2023-02-25T18:53:56;1.00;99.90
26270;DHT22;15937;50.612;6.656;2023-02-25T18:57:58;0.90;99.90
26270;DHT22;15937;50.612;6.656;2023-02-25T19:02:00;0.80;99.90
26270;DHT22;15937;50.612;6.656;2023-02-25T19:06:02;0.90;99.90
26270;DHT22;15937;50.612;6.656;2023-02-25T19:10:04;0.80;99.90
26270;DHT22;15937;50.612;6.656;2023-02-25T19:14:06;0.90;99.90
26270;DHT22;15937;50.612;6.656;2023-02-25T19:18:12;0.90;99.90
26270;DHT22;15937;50.612;6.656;2023-02-25T19:22:15;0.70;99.90
26270;DHT22;15937;50.612;6.656;2023-02-25T19:26:17;0.70;99.90
26270;DHT22;15937;50.612;6.656;2023-02-25T19:30:20;0.70;99.90
26270;DHT22;15937;50.612;6.656;2023-02-25T19:34:22;0.70;99.90
26270;DHT22;15937;50.612;6.656;2023-02-25T19:38:25;0.60;99.90
26270;DHT22;15937;50.612;6.656;2023-02-25T19:42:26;0.60;99.90
26270;DHT22;15937;50.612;6.656;2023-02-25T19:46:28;0.60;99.90
26270;DHT22;15937;50.612;6.656;2023-02-25T19:50:30;0.60;99.90
26270;DHT22;15937;50.612;6.656;2023-02-25T19:54:35;0.60;99.90
26270;DHT22;15937;50.612;6.656;2023-02-25T19:58:37;0.60;99.90
26270;DHT22;15937;50.612;6.656;2023-02-25T20:02:38;0.50;99.90
26270;DHT22;15937;50.612;6.656;2023-02-25T20:06:40;0.50;99.90
26270;DHT22;15937;50.612;6.656;2023-02-25T20:10:42;0.40;99.90
26270;DHT22;15937;50.612;6.656;2023-02-25T20:14:44;0.40;99.90
26270;DHT22;15937;50.612;6.656;2023-02-25T20:18:49;0.40;99.90
26270;DHT22;15937;50.612;6.656;2023-02-25T20:22:50;0.40;99.90
26270;DHT22;15937;50.612;6.656;2023-02-25T20:26:53;0.40;99.90
26270;DHT22;15937;50.612;6.656;2023-02-25T20:31:05;0.40;99.90
26270;DHT22;15937;50.612;6.656;2023-02-25T20:35:08;0.30;99.90
26270;DHT22;15937;50.612;6.656;2023-02-25T20:39:18;0.30;99.90
26270;DHT22;15937;50.612;6.656;2023-02-25T20:43:26;0.30;99.90
26270;DHT22;15937;50.612;6.656;2023-02-25T20:47:29;0.20;99.90
26270;DHT22;15937;50.612;6.656;2023-02-25T20:51:32;0.20;99.90
26270;DHT22;15937;50.612;6.656;2023-02-25T20:55:33;0.10;99.90
26270;DHT22;15937;50.612;6.656;2023-02-25T20:59:35;0.10;99.90
26270;DHT22;15937;50.612;6.656;2023-02-25T21:03:36;0.10;99.90
26270;DHT22;15937;50.612;6.656;2023-02-25T21:07:38;0.10;99.90
26270;DHT22;15937;50.612;6.656;2023-02-25T21:11:40;0.00;99.90
26270;DHT22;15937;50.612;6.656;2023-02-25T21:15:42;-0.20;99.90
26270;DHT22;15937;50.612;6.656;2023-02-25T21:19:44;-0.10;99.90
26270;DHT22;15937;50.612;6.656;2023-02-25T21:23:46;-0.10;99.90
26270;DHT22;15937;50.612;6.656;2023-02-25T21:27:48;-0.10;99.90
26270;DHT22;15937;50.612;6.656;2023-02-25T21:31:49;-0.20;99.90
26270;DHT22;15937;50.612;6.656;2023-02-25T21:35:51;-0.30;99.90
26270;DHT22;15937;50.612;6.656;2023-02-25T21:39:53;-0.20;99.90
26270;DHT22;15937;50.612;6.656;2023-02-25T21:43:55;-0.30;99.90
26270;DHT22;15937;50.612;6.656;2023-02-25T21:47:57;-0.50;99.90
26270;DHT22;15937;50.612;6.656;2023-02-25T21:51:59;-0.50;99.90
26270;DHT22;15937;50.612;6.656;2023-02-25T21:56:08;-0.50;99.90
26270;DHT22;15937;50.612;6.656;2023-02-25T22:00:11;-0.50;99.90
26270;DHT22;15937;50.612;6.656;2023-02-25T22:04:12;-0.40;99.90
26270;DHT22;15937;50.612;6.656;2023-02-25T22:08:14;-0.30;99.90
26270;DHT22;15937;50.612;6.656;2023-02-25T22:12:16;-0.40;99.90
26270;DHT22;15937;50.612;6.656;2023-02-25T22:16:18;-0.30;99.90
26270;DHT22;15937;50.612;6.656;2023-02-25T22:20:20;-0.30;99.90
26270;DHT22;15937;50.612;6.656;2023-02-25T22:24:22;-0.30;99.90
26270;DHT22;15937;50.612;6.656;2023-02-25T22:28:23;-0.30;99.90
26270;DHT22;15937;50.612;6.656;2023-02-25T22:32:25;-0.30;99.90
26270;DHT22;15937;50.612;6.656;2023-02-25T22:36:27;-0.40;99.90
26270;DHT22;15937;50.612;6.656;2023-02-25T22:40:29;-0.30;99.90
26270;DHT22;15937;50.612;6.656;2023-02-25T22:44:30;-0.50;99.90
26270;DHT22;15937;50.612;6.656;2023-02-25T22:48:33;-0.60;99.90
26270;DHT22;15937;50.612;6.656;2023-02-25T22:52:34;-0.60;99.90
26270;DHT22;15937;50.612;6.656;2023-02-25T22:56:37;-0.60;99.90
26270;DHT22;15937;50.612;6.656;2023-02-25T23:00:40;-0.60;99.90
26270;DHT22;15937;50.612;6.656;2023-02-25T23:04:42;-0.60;99.90
26270;DHT22;15937;50.612;6.656;2023-02-25T23:08:44;-0.60;99.90
26270;DHT22;15937;50.612;6.656;2023-02-25T23:12:46;-0.70;99.90
26270;DHT22;15937;50.612;6.656;2023-02-25T23:16:48;-0.70;99.90
26270;DHT22;15937;50.612;6.656;2023-02-25T23:20:49;-0.80;99.90
26270;DHT22;15937;50.612;6.656;2023-02-25T23:24:53;-0.80;99.90
26270;DHT22;15937;50.612;6.656;2023-02-25T23:28:56;-0.80;99.90
26270;DHT22;15937;50.612;6.656;2023-02-25T23:32:57;-0.60;99.90
26270;DHT22;15937;50.612;6.656;2023-02-25T23:36:59;-0.60;99.90
26270;DHT22;15937;50.612;6.656;2023-02-25T23:41:01;-0.60;99.90
26270;DHT22;15937;50.612;6.656;2023-02-25T23:45:03;-0.70;99.90
26270;DHT22;15937;50.612;6.656;2023-02-25T23:49:05;-0.80;99.90
26270;DHT22;15937;50.612;6.656;2023-02-25T23:53:07;-0.90;99.90
26270;DHT22;15937;50.612;6.656;2023-02-25T23:57:09;-0.90;99.90
